Time;durP1;ratioP1;P1;durP2;ratioP2;P2;SDS_P1;SDS_P2;PMS_P1;PMS_P2;Temp;Humidity;BMP_temperature;BMP_pressure;BME280_temperature;BME280_humidity;BME280_pressure;Samples;Min_cycle;Max_cycle;Signal;HPM_P1;HPM_P2
2022/12/16 00:01:41;;;;;;;77.43;40.23;;;;;;;6.72;96.47;99560.19;4994528;28;20246;-68
2022/12/16 00:04:09;;;;;;;81.83;40.73;;;;;;;6.74;96.47;99554.72;4994060;28;20199;-68
2022/12/16 00:06:36;;;;;;;72.23;39.20;;;;;;;6.76;96.81;99558.84;4994408;28;20618;-69
2022/12/16 00:09:02;;;;;;;80.23;41.63;;;;;;;6.77;95.49;99554.41;4994696;28;20195;-68
2022/12/16 00:11:32;;;;;;;71.67;39.80;;;;;;;6.74;95.75;99554.72;4993988;28;20740;-69
2022/12/16 00:13:59;;;;;;;73.57;40.07;;;;;;;6.70;96.24;99550.78;4994507;28;20198;-69
2022/12/16 00:16:26;;;;;;;75.13;38.17;;;;;;;6.75;96.71;99559.00;4993592;28;20195;-69
2022/12/16 00:18:52;;;;;;;59.67;35.43;;;;;;;6.71;97.24;99561.19;4994137;28;20218;-69
2022/12/16 00:21:22;;;;;;;63.63;36.93;;;;;;;6.75;97.83;99562.50;4994605;28;20626;-68
2022/12/16 00:23:48;;;;;;;64.83;38.07;;;;;;;6.80;97.39;99560.16;4994026;28;20219;-68
2022/12/16 00:26:15;;;;;;;66.97;37.73;;;;;;;6.84;97.77;99555.34;4994188;28;20187;-68
2022/12/16 00:28:43;;;;;;;68.10;37.77;;;;;;;6.85;97.12;99565.75;4993700;28;20202;-68
2022/12/16 00:31:09;;;;;;;64.87;37.27;;;;;;;6.87;96.82;99560.28;4993796;28;20233;-68
2022/12/16 00:33:36;;;;;;;62.23;36.17;;;;;;;6.87;96.82;99560.28;4993944;28;20199;-68
2022/12/16 00:36:03;;;;;;;57.37;34.53;;;;;;;6.84;97.00;99552.72;4993751;28;20195;-69
2022/12/16 00:38:31;;;;;;;59.70;32.90;;;;;;;6.78;96.82;99558.69;4993624;28;20235;-68
2022/12/16 00:40:58;;;;;;;57.90;31.87;;;;;;;6.77;97.95;99560.50;4993723;28;20623;-68
2022/12/16 00:43:25;;;;;;;61.63;34.47;;;;;;;6.78;98.28;99562.13;4994591;28;20281;-69
2022/12/16 00:45:52;;;;;;;56.67;33.50;;;;;;;6.82;98.28;99567.91;4993656;28;20206;-69
2022/12/16 00:48:21;;;;;;;57.07;33.53;;;;;;;6.85;98.60;99572.81;4993950;28;20194;-69
2022/12/16 00:50:50;;;;;;;56.07;33.03;;;;;;;6.87;98.17;99573.50;4993213;28;20249;-69
2022/12/16 00:53:17;;;;;;;52.30;31.77;;;;;;;6.88;97.19;99557.50;4993557;28;20265;-69
2022/12/16 00:55:45;;;;;;;58.43;33.27;;;;;;;6.90;96.75;99555.47;4993868;28;20200;-69
2022/12/16 00:58:12;;;;;;;60.67;33.37;;;;;;;6.91;97.54;99558.97;4994150;28;20265;-69
2022/12/16 01:00:38;;;;;;;54.40;31.10;;;;;;;6.88;96.59;99552.22;4993071;28;20191;-69
2022/12/16 01:03:05;;;;;;;57.70;32.57;;;;;;;6.86;96.20;99551.53;4993413;28;20248;-69
2022/12/16 01:05:32;;;;;;;57.50;32.73;;;;;;;6.85;96.19;99541.16;4993755;28;20253;-69
2022/12/16 01:07:59;;;;;;;50.27;31.33;;;;;;;6.87;97.09;99545.28;4993647;28;20283;-69
2022/12/16 01:10:26;;;;;;;59.90;30.93;;;;;;;6.84;96.68;99540.34;4973487;28;20251;-69
2022/12/16 01:12:54;;;;;;;52.73;31.60;;;;;;;6.82;96.15;99546.78;4973824;28;20251;-69
2022/12/16 01:15:20;;;;;;;58.30;32.07;;;;;;;6.75;96.55;99559.00;4973888;28;20253;-68
2022/12/16 01:17:47;;;;;;;50.77;30.70;;;;;;;6.67;96.05;99572.22;4973292;28;20702;-68
2022/12/16 01:20:14;;;;;;;47.17;30.60;;;;;;;6.62;96.96;99577.19;4973671;28;20228;-68
2022/12/16 01:22:41;;;;;;;57.57;31.27;;;;;;;6.57;97.39;99577.69;4973723;28;20218;-69
2022/12/16 01:25:11;;;;;;;63.33;32.57;;;;;;;6.55;97.59;99581.50;4973622;28;20656;-69
2022/12/16 01:27:38;;;;;;;52.40;31.83;;;;;;;6.56;97.10;99588.41;4991955;28;20634;-69
2022/12/16 01:30:08;;;;;;;47.93;31.47;;;;;;;6.56;97.47;99589.25;4992891;28;20198;-69
2022/12/16 01:32:35;;;;;;;48.70;30.80;;;;;;;6.56;97.17;99580.50;4992746;28;20191;-69
2022/12/16 01:35:02;;;;;;;52.23;29.57;;;;;;;6.49;97.50;99576.91;4993163;28;20190;-69
2022/12/16 01:37:29;;;;;;;45.03;29.13;;;;;;;6.44;98.07;99584.47;4993340;28;20195;-69
2022/12/16 01:39:55;;;;;;;60.47;31.97;;;;;;;6.41;99.15;99569.81;4992550;28;20194;-70
2022/12/16 01:42:23;;;;;;;57.50;31.13;;;;;;;6.47;98.73;99568.31;4992843;28;20200;-69
2022/12/16 01:44:53;;;;;;;53.67;30.97;;;;;;;6.52;99.28;99571.28;4993389;28;20195;-69
2022/12/16 01:47:26;;;;;;;48.67;30.60;;;;;;;6.57;99.18;99568.97;4992771;28;20638;-69
2022/12/16 01:49:57;;;;;;;50.73;29.93;;;;;;;6.58;99.53;99557.41;4993112;28;20596;-68
2022/12/16 01:52:30;;;;;;;54.17;30.43;;;;;;;6.50;99.79;99547.72;4992811;28;20267;-68
2022/12/16 01:55:01;;;;;;;50.13;31.40;;;;;;;6.56;100.00;99552.31;4993303;28;20191;-68
2022/12/16 01:57:35;;;;;;;60.77;32.23;;;;;;;6.57;100.00;99553.13;4992670;28;20551;-68
2022/12/16 02:00:04;;;;;;;56.43;31.43;;;;;;;6.53;100.00;99541.28;4993186;28;20192;-69
2022/12/16 02:02:33;;;;;;;60.67;32.00;;;;;;;6.48;100.00;99522.47;4992590;28;20202;-69
2022/12/16 02:08:01;;;;;;;57.07;30.67;;;;;;;6.56;99.74;99525.09;4951709;29;20227;-69
2022/12/16 02:10:38;;;;;;;55.73;31.40;;;;;;;6.52;100.00;99529.88;4964299;28;20206;-69
2022/12/16 02:13:17;;;;;;;53.37;31.23;;;;;;;6.49;100.00;99524.94;4972908;28;20749;-69
2022/12/16 02:15:50;;;;;;;67.67;33.43;;;;;;;6.42;100.00;99531.06;4973190;28;20192;-69
2022/12/16 02:18:26;;;;;;;67.53;33.13;;;;;;;6.34;100.00;99528.44;4973382;28;20322;-70
2022/12/16 02:21:27;;;;;;;60.43;31.87;;;;;;;6.40;100.00;99519.88;4973484;28;20234;-70
2022/12/16 02:24:45;;;;;;;74.33;33.83;;;;;;;6.43;100.00;99517.72;4966750;28;20191;-69
2022/12/16 02:27:45;;;;;;;76.17;34.27;;;;;;;6.40;100.00;99509.34;4988377;28;20245;-70
2022/12/16 02:30:44;;;;;;;64.67;31.60;;;;;;;6.34;100.00;99517.91;4993073;28;20211;-70
2022/12/16 02:33:29;;;;;;;79.67;35.00;;;;;;;6.33;100.00;99503.06;4988215;28;20220;-69
2022/12/16 02:36:03;;;;;;;63.27;33.10;;;;;;;6.40;100.00;99509.34;4992040;28;20199;-69
2022/12/16 02:38:38;;;;;;;64.17;33.53;;;;;;;6.46;100.00;99521.84;4992874;28;20678;-69
2022/12/16 02:41:12;;;;;;;86.70;36.40;;;;;;;6.35;99.75;99522.19;4996058;28;20190;-69
2022/12/16 02:43:51;;;;;;;79.30;35.00;;;;;;;6.28;99.69;99526.50;4996324;28;20182;-69
2022/12/16 02:46:22;;;;;;;83.77;36.83;;;;;;;6.25;99.96;99530.28;4996223;28;20253;-69
2022/12/16 02:48:49;;;;;;;67.97;32.60;;;;;;;6.17;100.00;99540.03;4995835;28;20199;-68
2022/12/16 02:51:16;;;;;;;68.77;34.17;;;;;;;6.11;100.00;99535.41;4996102;28;20199;-68
2022/12/16 02:53:46;;;;;;;62.53;31.93;;;;;;;6.14;100.00;99532.44;4996355;28;20194;-68
2022/12/16 02:56:24;;;;;;;57.57;32.60;;;;;;;6.20;100.00;99537.88;4995710;28;20249;-67
2022/12/16 02:59:03;;;;;;;66.03;33.60;;;;;;;6.22;100.00;99528.00;4995393;28;20331;-69
2022/12/16 03:01:39;;;;;;;63.53;34.23;;;;;;;6.11;100.00;99519.59;4995834;28;20596;-69
2022/12/16 03:04:12;;;;;;;59.33;32.40;;;;;;;6.08;100.00;99519.94;4995457;28;20567;-69
2022/12/16 03:06:42;;;;;;;63.50;32.13;;;;;;;6.12;100.00;99508.06;4995238;28;20187;-68
2022/12/16 03:09:12;;;;;;;55.70;31.60;;;;;;;6.08;100.00;99507.56;4995636;28;20190;-68
2022/12/16 03:11:43;;;;;;;65.57;31.43;;;;;;;6.09;100.00;99517.13;4995175;28;20648;-69
2022/12/16 03:14:14;;;;;;;57.67;31.60;;;;;;;6.05;100.00;99525.53;4995517;28;20186;-69
2022/12/16 03:16:45;;;;;;;102.83;33.30;;;;;;;5.91;100.00;99527.03;4995767;28;20216;-69
2022/12/16 03:19:13;;;;;;;68.43;30.37;;;;;;;5.85;100.00;99526.88;4995448;28;20276;-69
2022/12/16 03:21:45;;;;;;;56.70;30.80;;;;;;;5.81;100.00;99528.19;4995434;28;20322;-68
2022/12/16 03:24:13;;;;;;;66.60;31.93;;;;;;;5.70;100.00;99511.69;4995677;28;20191;-69
2022/12/16 03:26:48;;;;;;;49.17;29.50;;;;;;;5.85;100.00;99524.22;4994775;28;20221;-69
2022/12/16 03:29:21;;;;;;;52.20;31.13;;;;;;;5.88;100.00;99534.44;4995138;28;20244;-68
2022/12/16 03:31:55;;;;;;;50.23;31.73;;;;;;;5.75;100.00;99540.16;4995033;28;20218;-68
2022/12/16 03:34:32;;;;;;;45.63;28.57;;;;;;;5.84;100.00;99554.22;4995918;28;20242;-68
2022/12/16 03:37:03;;;;;;;43.17;27.43;;;;;;;5.87;100.00;99532.81;4995173;28;20188;-68
2022/12/16 03:39:31;;;;;;;43.53;27.47;;;;;;;5.90;100.00;99543.00;4995208;28;20214;-68
2022/12/16 03:41:58;;;;;;;39.97;26.87;;;;;;;5.86;100.00;99552.22;4994504;28;20245;-68
2022/12/16 03:44:25;;;;;;;39.77;26.70;;;;;;;5.85;100.00;99551.41;4994484;28;20253;-68
2022/12/16 03:46:54;;;;;;;40.63;26.70;;;;;;;5.85;100.00;99547.94;4994473;28;20207;-68
2022/12/16 03:49:21;;;;;;;30.93;24.63;;;;;;;5.93;100.00;99559.31;4994726;28;20234;-69
2022/12/16 03:51:48;;;;;;;34.87;25.93;;;;;;;6.03;100.00;99564.41;4994792;28;20226;-69
2022/12/16 03:54:15;;;;;;;34.37;23.50;;;;;;;6.03;100.00;99564.41;4995239;28;20613;-69
2022/12/16 03:56:41;;;;;;;37.23;24.17;;;;;;;6.08;100.00;99584.03;4994301;28;20256;-69
2022/12/16 03:59:09;;;;;;;33.03;23.53;;;;;;;5.95;100.00;99580.25;4994220;28;20232;-69
2022/12/16 04:01:37;;;;;;;35.50;24.87;;;;;;;5.88;100.00;99566.06;4994048;28;20286;-69
2022/12/16 04:04:05;;;;;;;33.47;23.07;;;;;;;5.87;100.00;99564.44;4994184;28;20688;-69
2022/12/16 04:06:32;;;;;;;40.07;26.10;;;;;;;5.84;100.00;99543.66;4994468;28;20256;-69
2022/12/16 04:08:59;;;;;;;30.97;22.53;;;;;;;5.85;100.00;99551.41;4994330;28;20194;-68
2022/12/16 04:25:18;;;;;;;35.73;22.17;;;;;;;6.29;100.00;99542.13;4994024;28;20193;-69
2022/12/16 04:27:46;;;;;;;32.83;22.90;;;;;;;6.36;100.00;99558.13;4974198;28;20679;-69
2022/12/16 04:30:20;;;;;;;31.37;21.53;;;;;;;6.35;100.00;99559.09;4979409;28;20197;-69
